Date,TemperatureHighF,TemperatureAvgF,TemperatureLowF,DewpointHighF,DewpointAvgF,DewpointLowF,HumidityHigh,HumidityAvg,HumidityLow,PressureMaxIn,PressureMinIn,WindSpeedMaxMPH,WindSpeedAvgMPH,GustSpeedMaxMPH,PrecipitationSumIn
2013-1-1,27.0,23.2,11.4,22.0,18.0,7.8,88,80,74,30.21,30.10,8,2,12,0.01
2013-1-2,23.0,15.8,9.4,15.1,10.1,6.6,90,78,66,30.28,30.19,8,2,13,0.00
2013-1-3,30.2,22.7,13.6,24.9,17.6,6.6,88,80,72,30.29,30.17,14,6,19,0.00
2013-1-4,28.9,20.8,12.8,22.3,16.7,9.4,89,84,75,30.30,30.20,22,6,22,0.00
2013-1-5,32.5,26.7,18.4,30.1,23.2,16.2,94,87,73,30.33,30.07,11,4,21,0.01
2013-1-6,33.5,31.4,27.2,31.1,27.8,23.4,91,87,79,30.35,29.96,19,6,21,0.00
2013-1-7,34.1,26.1,17.9,25.4,21.4,16.3,94,83,66,30.42,30.19,16,5,24,0.00
2013-1-8,38.2,31.4,26.1,29.9,25.6,22.2,86,79,66,30.26,30.14,11,4,18,0.00
2013-1-9,45.4,38.6,29.4,33.4,29.6,23.9,86,71,47,30.49,30.09,15,6,22,0.01
2013-1-10,39.5,32.7,23.5,35.0,27.3,20.2,95,81,65,30.56,30.06,16,5,22,0.24
2013-1-11,52.5,47.5,36.7,50.4,45.3,35.4,97,92,87,30.05,29.77,15,6,25,0.46
2013-1-12,55.2,48.6,37.4,48.9,43.9,35.8,94,84,74,29.97,29.79,16,5,20,0.22
2013-1-13,36.9,30.7,20.3,35.3,29.0,16.8,96,93,85,30.21,29.82,16,5,23,0.15
2013-1-14,23.0,19.6,15.0,17.8,15.4,12.3,89,84,76,30.51,30.22,9,4,19,0.00
2013-1-15,28.9,20.3,12.3,21.1,15.8,10.2,93,83,64,30.49,30.21,7,1,10,0.00
2013-1-16,34.2,26.5,17.6,28.0,20.8,15.5,93,80,58,30.21,29.92,16,5,24,0.00
2013-1-17,33.4,28.6,21.6,29.4,21.2,13.7,87,73,63,30.41,30.07,18,5,24,0.00
2013-1-18,36.9,28.1,19.1,27.6,20.1,13.6,84,72,61,30.47,30.03,20,7,28,0.01
2013-1-19,46.0,39.5,34.8,35.7,31.5,27.4,82,73,63,30.03,29.76,24,9,37,0.01
2013-1-20,39.0,19.8,15.8,26.3,12.1,8.4,83,72,52,30.29,29.79,26,9,39,0.00
2013-1-21,18.2,11.8,7.3,8.9,6.2,3.5,89,78,65,30.27,30.15,19,10,26,0.00
2013-1-22,7.7,6.0,3.6,4.6,2.7,0.6,89,86,79,30.42,30.27,11,5,16,0.00
2013-1-23,18.8,12.7,7.6,15.6,7.2,2.0,91,78,66,30.39,30.16,10,6,18,0.00
2013-1-24,17.6,13.9,6.7,13.9,6.2,2.0,91,72,52,30.68,30.26,10,2,15,0.01
2013-1-25,24.6,19.1,15.9,21.0,14.0,6.2,91,80,65,30.49,30.06,9,4,14,0.00
2013-1-26,25.1,23.6,22.0,21.6,18.9,15.9,88,82,75,30.47,30.13,10,3,15,0.01
2013-1-27,33.1,26.1,21.4,31.3,21.7,16.5,93,83,76,30.48,30.06,13,4,25,0.00
2013-1-28,45.3,40.2,33.5,44.8,39.4,32.0,98,97,94,30.06,29.90,17,4,19,0.23
2013-1-29,57.4,53.3,38.5,55.7,52.1,38.0,98,96,90,29.95,29.41,15,6,28,0.84
2013-1-30,51.6,41.5,25.2,50.8,40.3,23.0,98,96,87,29.51,29.17,18,6,26,0.70
2013-1-31,24.7,16.5,10.6,21.9,13.3,8.5,91,87,74,30.09,29.53,20,11,29,0.00